Time;durP1;ratioP1;P1;durP2;ratioP2;P2;SDS_P1;SDS_P2;PMS_P1;PMS_P2;Temp;Humidity;BMP_temperature;BMP_pressure;BME280_temperature;BME280_humidity;BME280_pressure;Samples;Min_cycle;Max_cycle;Signal;HPM_P1;HPM_P2
2022/08/07 00:00:00;;;;;;;9.18;4.20;;;;;;;11.94;100.00;102620.91;6571759;22;19992;-81
2022/08/07 00:02:34;;;;;;;7.65;3.83;;;;;;;11.91;100.00;102613.94;6572412;22;20003;-81
2022/08/07 00:05:06;;;;;;;4.53;4.13;;;;;;;12.04;100.00;102611.28;6571369;22;20326;-81
2022/08/07 00:07:38;;;;;;;4.90;3.67;;;;;;;11.61;100.00;102608.91;6544447;22;20019;-81
2022/08/07 00:10:12;;;;;;;4.30;3.78;;;;;;;11.77;100.00;102613.19;6545808;22;19999;-81
2022/08/07 00:12:46;;;;;;;5.47;4.55;;;;;;;11.37;100.00;102608.75;6571853;22;19993;-80
2022/08/07 00:15:18;;;;;;;7.03;4.78;;;;;;;11.22;100.00;102594.66;6543871;22;20004;-80
2022/08/07 00:17:49;;;;;;;5.95;4.40;;;;;;;11.05;100.00;102608.28;6545854;22;20303;-80
2022/08/07 00:20:27;;;;;;;4.75;4.22;;;;;;;11.21;100.00;102608.94;6543612;22;20000;-80
2022/08/07 00:22:58;;;;;;;5.72;4.65;;;;;;;11.06;100.00;102588.59;6571619;22;19996;-81
2022/08/07 00:25:32;;;;;;;5.13;4.65;;;;;;;11.25;100.00;102598.91;6544255;22;20010;-81
2022/08/07 00:28:04;;;;;;;7.40;5.80;;;;;;;10.81;100.00;102576.91;6544540;22;20442;-81
2022/08/07 00:30:36;;;;;;;7.57;5.45;;;;;;;10.94;100.00;102576.94;6539291;22;20120;-81
2022/08/07 00:33:10;;;;;;;5.63;5.05;;;;;;;11.02;100.00;102589.78;6512988;22;20063;-80
2022/08/07 00:35:42;;;;;;;5.57;5.07;;;;;;;10.52;100.00;102593.00;6539633;22;20001;-81
2022/08/07 00:38:19;;;;;;;6.28;4.75;;;;;;;10.52;100.00;102582.34;6512988;22;19992;-81
2022/08/07 00:40:50;;;;;;;;;;;;;;;10.49;100.00;102581.69;6539234;22;20058;-80
2022/08/07 00:43:21;;;;;;;7.80;4.45;;;;;;;10.17;100.00;102577.44;6511983;22;19919;-81
2022/08/07 00:45:53;;;;;;;6.03;4.82;;;;;;;10.26;100.00;102577.81;6512833;22;20301;-82
2022/08/07 00:48:25;;;;;;;6.57;5.28;;;;;;;10.03;100.00;102534.78;6512280;22;20004;-81
2022/08/07 00:50:57;;;;;;;9.77;5.70;;;;;;;10.05;100.00;102553.38;6511880;22;20405;-80
2022/08/07 00:53:29;;;;;;;5.53;4.90;;;;;;;10.40;100.00;102573.31;6538856;22;20383;-81
2022/08/07 00:56:03;;;;;;;6.63;5.60;;;;;;;10.05;100.00;102556.03;6511975;22;20766;-81
2022/08/07 00:58:35;;;;;;;8.98;5.53;;;;;;;10.01;100.00;102571.34;6539090;22;20047;-80
2022/08/07 01:01:07;;;;;;;7.43;5.35;;;;;;;9.86;100.00;102561.66;6539849;22;20011;-80
2022/08/07 01:03:39;;;;;;;6.80;5.30;;;;;;;10.12;100.00;102557.34;6511788;22;19992;-80
2022/08/07 01:06:11;;;;;;;8.05;5.45;;;;;;;9.78;100.00;102562.13;6512108;22;20330;-80
2022/08/07 01:08:45;;;;;;;7.90;6.13;;;;;;;9.59;100.00;102562.38;6513043;22;20003;-80
2022/08/07 01:11:17;;;;;;;6.90;6.20;;;;;;;9.50;100.00;102549.63;6513031;22;20008;-80
2022/08/07 01:13:49;;;;;;;7.00;6.40;;;;;;;9.70;100.00;102565.25;6539834;22;20012;-80
2022/08/07 01:16:21;;;;;;;6.55;5.95;;;;;;;9.52;100.00;102547.72;6512656;22;20531;-80
2022/08/07 01:18:58;;;;;;;7.65;6.10;;;;;;;9.56;100.00;102562.59;6512299;22;20071;-80
2022/08/07 01:21:33;;;;;;;9.15;6.80;;;;;;;9.55;100.00;102555.53;6514209;22;20326;-80
2022/08/07 01:24:10;;;;;;;10.18;6.00;;;;;;;9.31;100.00;102556.09;6541025;22;20000;-80
2022/08/07 01:26:42;;;;;;;7.57;6.25;;;;;;;9.55;100.00;102564.38;6511980;22;20000;-80
2022/08/07 01:29:14;;;;;;;7.55;6.32;;;;;;;9.03;100.00;102539.09;6542993;22;19992;-80
2022/08/07 01:31:46;;;;;;;7.25;6.55;;;;;;;9.44;100.00;102545.53;6516838;22;20008;-81
2022/08/07 01:34:18;;;;;;;6.90;6.00;;;;;;;9.62;100.00;102557.75;6512911;22;20011;-80
2022/08/07 01:36:51;;;;;;;8.10;7.32;;;;;;;9.10;100.00;102526.28;6513112;22;20087;-80
2022/08/07 01:39:22;;;;;;;8.05;7.10;;;;;;;9.09;100.00;102540.53;6539673;22;20399;-80
2022/08/07 01:41:57;;;;;;;8.65;6.80;;;;;;;9.05;100.00;102542.53;6539325;22;20003;-81
2022/08/07 01:44:28;;;;;;;7.65;6.90;;;;;;;9.04;100.00;102546.13;6538435;22;20377;-80
2022/08/07 01:47:00;;;;;;;8.38;7.57;;;;;;;8.85;100.00;102519.75;6520628;22;20004;-81
2022/08/07 01:49:32;;;;;;;9.00;6.57;;;;;;;8.93;100.00;102529.94;6519876;22;19985;-81
2022/08/07 01:52:07;;;;;;;14.60;7.50;;;;;;;8.81;100.00;102525.34;6542493;22;19991;-80
2022/08/07 01:54:40;;;;;;;8.15;6.32;;;;;;;8.88;100.00;102547.97;6542982;22;20071;-80
2022/08/07 01:57:22;;;;;;;6.95;6.35;;;;;;;8.75;100.00;102531.88;6543695;22;20001;-80
2022/08/07 01:59:59;;;;;;;8.77;7.03;;;;;;;8.55;100.00;102529.50;6541418;22;19989;-81
2022/08/07 02:02:40;;;;;;;9.07;7.05;;;;;;;8.84;100.00;102541.97;6531546;22;20004;-81
2022/08/07 02:05:17;;;;;;;7.63;6.78;;;;;;;8.58;100.00;102505.41;6522964;22;20003;-81
2022/08/07 02:07:51;;;;;;;9.10;7.53;;;;;;;8.52;100.00;102514.59;6521084;22;20008;-81
2022/08/07 02:10:25;;;;;;;8.77;7.03;;;;;;;8.60;100.00;102546.06;6515283;22;20011;-81
2022/08/07 02:13:01;;;;;;;9.98;8.55;;;;;;;8.65;100.00;102544.00;6538217;22;20007;-81
2022/08/07 02:15:35;;;;;;;9.30;8.32;;;;;;;8.55;100.00;102541.00;6510915;22;20012;-81
2022/08/07 02:18:11;;;;;;;10.77;8.82;;;;;;;8.70;100.00;102534.81;6539382;22;20068;-81
2022/08/07 02:20:44;;;;;;;9.93;8.90;;;;;;;8.47;100.00;102528.16;6511611;22;20000;-81
2022/08/07 02:23:20;;;;;;;10.95;9.85;;;;;;;8.37;100.00;102504.81;6511644;22;20446;-81
2022/08/07 02:25:53;;;;;;;11.60;9.25;;;;;;;8.73;100.00;102536.44;6511207;22;20051;-81
2022/08/07 02:28:30;;;;;;;9.30;8.40;;;;;;;8.41;100.00;102540.91;6511925;22;19999;-81
2022/08/07 02:31:02;;;;;;;;;;;;;;;8.41;100.00;102533.78;6512331;22;20065;-81
2022/08/07 02:33:37;;;;;;;9.68;7.97;;;;;;;8.45;100.00;102534.47;6513162;22;19961;-81
2022/08/07 02:36:17;;;;;;;9.20;8.13;;;;;;;8.29;100.00;102527.38;6512903;22;19997;-81
2022/08/07 02:38:54;;;;;;;10.35;9.00;;;;;;;8.48;100.00;102537.81;6512540;22;20017;-80
2022/08/07 02:41:26;;;;;;;10.27;9.18;;;;;;;8.27;100.00;102515.94;6513501;22;19996;-81
2022/08/07 02:44:03;;;;;;;12.20;10.52;;;;;;;8.41;100.00;102535.59;6513482;22;20104;-80
2022/08/07 02:46:36;;;;;;;8.95;8.05;;;;;;;8.33;100.00;102525.38;6512671;22;19999;-81
2022/08/07 02:49:07;;;;;;;11.90;9.48;;;;;;;8.15;100.00;102511.31;6512974;22;19996;-81
2022/08/07 02:51:42;;;;;;;12.57;9.98;;;;;;;8.36;100.00;102532.31;6540257;22;20027;-80
2022/08/07 02:54:16;;;;;;;10.73;9.73;;;;;;;8.38;100.00;102533.97;6512980;22;20003;-81
2022/08/07 02:56:52;;;;;;;10.25;9.18;;;;;;;8.20;100.00;102513.72;6512721;22;20137;-81
2022/08/07 02:59:27;;;;;;;13.63;11.05;;;;;;;8.39;100.00;102513.53;6539570;22;20330;-81
2022/08/07 03:02:02;;;;;;;13.10;10.38;;;;;;;8.24;100.00;102523.22;6539155;22;20072;-81
2022/08/07 03:04:34;;;;;;;12.80;9.80;;;;;;;8.19;100.00;102515.53;6539870;22;20003;-81
2022/08/07 03:07:12;;;;;;;12.27;10.18;;;;;;;8.14;100.00;102523.75;6513240;22;20002;-81
2022/08/07 03:09:44;;;;;;;12.50;10.35;;;;;;;7.83;100.00;102479.41;6540450;22;20000;-80
2022/08/07 03:12:18;;;;;;;13.23;9.63;;;;;;;7.96;100.00;102498.22;6540109;22;20004;-81
2022/08/07 03:14:50;;;;;;;11.50;9.30;;;;;;;7.74;100.00;102504.69;6512511;22;20011;-81
2022/08/07 03:17:23;;;;;;;11.07;9.70;;;;;;;7.95;100.00;102515.09;6512844;22;20425;-81
2022/08/07 03:19:55;;;;;;;12.18;10.30;;;;;;;7.92;100.00;102517.91;6512765;22;20426;-80
2022/08/07 03:22:30;;;;;;;16.00;11.00;;;;;;;7.84;100.00;102499.75;6540239;22;20079;-81
2022/08/07 03:25:03;;;;;;;12.00;10.30;;;;;;;8.23;100.00;102521.53;6512373;22;20003;-81
2022/08/07 03:27:35;;;;;;;13.10;11.63;;;;;;;7.92;100.00;102508.16;6513395;22;19996;-81
2022/08/07 03:30:07;;;;;;;13.70;10.88;;;;;;;7.89;100.00;102520.75;6512678;22;20031;-81
2022/08/07 03:32:41;;;;;;;11.98;10.75;;;;;;;7.98;100.00;102514.03;6513061;22;19996;-81
2022/08/07 03:35:17;;;;;;;13.90;10.25;;;;;;;8.00;100.00;102525.47;6511798;22;20000;-81
2022/08/07 03:38:02;;;;;;;16.40;12.23;;;;;;;8.02;100.00;102519.13;6512595;22;20019;-81
2022/08/07 03:40:35;;;;;;;15.90;11.75;;;;;;;8.06;100.00;102518.00;6511726;22;20027;-81
2022/08/07 03:43:07;;;;;;;12.13;10.68;;;;;;;7.92;100.00;102523.22;6506370;22;20019;-80
2022/08/07 03:45:39;;;;;;;14.55;10.48;;;;;;;7.71;100.00;102512.84;6506133;22;20005;-81
2022/08/07 03:48:11;;;;;;;13.13;9.95;;;;;;;7.71;100.00;102501.34;6505354;22;20000;-81
2022/08/07 03:50:43;;;;;;;15.43;11.77;;;;;;;7.68;100.00;102490.88;6506268;22;20312;-80
2022/08/07 03:53:16;;;;;;;8.73;7.93;;;;;;;7.86;100.00;102527.06;6506648;22;19996;-81
2022/08/07 03:55:49;;;;;;;9.90;8.95;;;;;;;8.08;100.00;102531.19;6506235;22;20001;-80
2022/08/07 03:58:21;;;;;;;12.43;11.13;;;;;;;8.16;100.00;102530.78;6505391;22;20001;-81
2022/08/07 04:01:01;;;;;;;13.23;11.40;;;;;;;8.20;100.00;102519.03;6507355;22;20437;-81
2022/08/07 04:03:33;;;;;;;18.25;12.98;;;;;;;8.28;100.00;102514.16;6506735;22;20092;-81
2022/08/07 04:06:11;;;;;;;12.68;11.25;;;;;;;8.16;100.00;102536.97;6506154;22;20056;-81
2022/08/07 04:08:44;;;;;;;15.07;12.50;;;;;;;8.08;100.00;102540.06;6506927;22;20371;-81
2022/08/07 04:11:20;;;;;;;14.88;12.30;;;;;;;8.18;100.00;102518.28;6505402;22;20351;-80
2022/08/07 04:13:56;;;;;;;14.18;11.93;;;;;;;8.09;100.00;102539.09;6507573;22;20412;-81
2022/08/07 04:16:31;;;;;;;14.93;12.50;;;;;;;8.52;100.00;102547.38;6504047;22;20083;-81
2022/08/07 04:19:04;;;;;;;14.73;13.18;;;;;;;8.43;100.00;102531.94;6505430;22;19996;-80
2022/08/07 04:21:38;;;;;;;20.63;13.18;;;;;;;8.20;100.00;102546.47;6506456;22;20001;-81
2022/08/07 04:24:11;;;;;;;18.98;13.93;;;;;;;8.26;100.00;102546.13;6504801;22;20003;-80
2022/08/07 04:26:43;;;;;;;14.10;12.68;;;;;;;8.24;100.00;102542.72;6506298;22;20009;-81
2022/08/07 04:29:14;;;;;;;13.43;11.75;;;;;;;8.14;100.00;102507.81;6505182;22;20085;-81
2022/08/07 04:31:46;;;;;;;12.45;11.05;;;;;;;8.22;100.00;102538.41;6505966;22;20008;-81
2022/08/07 04:34:20;;;;;;;17.42;12.88;;;;;;;7.97;100.00;102518.50;6505167;22;20167;-81
2022/08/07 04:36:52;;;;;;;19.05;13.20;;;;;;;8.30;100.00;102558.31;6505863;22;20084;-81
2022/08/07 04:39:24;;;;;;;21.98;13.77;;;;;;;8.31;100.00;102537.91;6507356;22;19996;-81
2022/08/07 04:41:56;;;;;;;20.50;13.20;;;;;;;8.26;100.00;102558.59;6506798;22;20008;-81
2022/08/07 04:44:30;;;;;;;22.60;13.60;;;;;;;8.24;100.00;102549.81;6530872;22;20066;-81
2022/08/07 04:47:21;;;;;;;20.50;14.48;;;;;;;8.02;100.00;102540.38;6539193;22;20438;-81
2022/08/07 04:50:06;;;;;;;14.35;11.25;;;;;;;8.14;100.00;102537.03;6539205;22;20020;-81
2022/08/07 04:52:55;;;;;;;17.98;12.52;;;;;;;8.24;100.00;102553.34;6512119;22;19996;-81
2022/08/07 04:55:33;;;;;;;13.13;11.63;;;;;;;8.35;100.00;102560.72;6512060;22;20088;-81
2022/08/07 04:58:42;;;;;;;17.73;13.82;;;;;;;8.49;100.00;102563.50;6511951;22;20000;-80
2022/08/07 05:01:30;;;;;;;17.17;13.30;;;;;;;8.61;100.00;102567.25;6512158;22;20176;-81
2022/08/07 05:04:08;;;;;;;16.55;13.10;;;;;;;8.47;100.00;102548.56;6512268;22;20115;-81
2022/08/07 05:07:11;;;;;;;18.25;13.85;;;;;;;8.67;100.00;102566.06;6538946;22;20026;-81
2022/08/07 05:09:57;;;;;;;16.05;13.18;;;;;;;8.68;100.00;102551.81;6510879;22;20003;-81
2022/08/07 05:12:39;;;;;;;20.80;10.82;;;;;;;9.41;100.00;102567.91;6511946;22;20008;-80
2022/08/07 05:15:17;;;;;;;21.38;14.63;;;;;;;9.14;100.00;102561.56;6510951;22;20095;-81
2022/08/07 05:17:54;;;;;;;19.20;14.95;;;;;;;9.35;100.00;102562.09;6510938;22;20322;-81
2022/08/07 05:20:29;;;;;;;;;;;;;;;9.29;100.00;102565.97;6539050;22;20000;-81
2022/08/07 05:23:25;;;;;;;19.60;14.63;;;;;;;9.37;100.00;102566.38;6512674;22;20306;-81
2022/08/07 05:25:58;;;;;;;16.25;13.05;;;;;;;9.56;100.00;102573.25;6535632;22;20011;-81
2022/08/07 05:28:32;;;;;;;23.02;15.95;;;;;;;9.69;100.00;102571.53;6511912;22;20043;-81
2022/08/07 05:31:05;;;;;;;25.40;15.57;;;;;;;10.14;100.00;102576.78;6511218;22;20007;-81
2022/08/07 05:33:38;;;;;;;17.90;13.32;;;;;;;10.62;100.00;102579.06;6511776;22;20359;-81
2022/08/07 05:36:11;;;;;;;29.67;17.75;;;;;;;10.73;100.00;102585.41;6511224;22;20007;-82
2022/08/07 05:38:43;;;;;;;21.50;16.17;;;;;;;11.14;100.00;102579.13;6539445;22;20433;-83
2022/08/07 05:41:15;;;;;;;19.15;15.70;;;;;;;11.10;100.00;102587.47;6513612;22;20410;-82
2022/08/07 05:43:49;;;;;;;17.58;14.57;;;;;;;11.38;100.00;102586.44;6540057;22;20008;-81
2022/08/07 05:46:22;;;;;;;17.45;12.18;;;;;;;11.82;100.00;102587.00;6512737;22;20000;-82
2022/08/07 05:48:54;;;;;;;14.13;11.60;;;;;;;11.88;100.00;102579.34;6538518;22;20095;-82
2022/08/07 05:51:25;;;;;;;14.18;11.18;;;;;;;12.59;100.00;102584.16;6511816;22;20035;-82
2022/08/07 05:53:57;;;;;;;11.52;9.95;;;;;;;12.94;100.00;102586.00;6537727;22;20100;-81
2022/08/07 05:56:30;;;;;;;10.30;9.00;;;;;;;13.13;100.00;102588.16;6510854;22;20007;-81
2022/08/07 05:59:04;;;;;;;10.38;6.88;;;;;;;13.55;100.00;102578.69;6510847;22;20354;-81
2022/08/07 06:01:39;;;;;;;8.05;7.35;;;;;;;13.80;100.00;102592.84;6537248;22;20000;-81
2022/08/07 06:04:13;;;;;;;9.13;7.03;;;;;;;13.98;100.00;102587.84;6514793;22;20031;-81
2022/08/07 06:06:45;;;;;;;10.35;7.13;;;;;;;14.29;100.00;102591.59;6515104;22;19996;-81
2022/08/07 06:09:17;;;;;;;7.93;7.10;;;;;;;14.38;100.00;102590.84;6513639;22;20023;-81
2022/08/07 06:11:49;;;;;;;7.97;7.18;;;;;;;14.62;100.00;102594.38;6514005;22;20010;-82
2022/08/07 06:14:20;;;;;;;7.30;6.47;;;;;;;14.69;100.00;102590.19;6514602;22;20095;-82
2022/08/07 06:16:52;;;;;;;8.23;5.90;;;;;;;15.34;100.00;102582.09;6514392;22;20000;-81
2022/08/07 06:19:25;;;;;;;7.40;6.10;;;;;;;15.78;100.00;102574.75;6514533;22;19992;-81
2022/08/07 06:21:57;;;;;;;7.88;7.03;;;;;;;15.99;100.00;102572.00;6514967;22;20004;-82
2022/08/07 06:24:29;;;;;;;8.00;6.43;;;;;;;16.30;100.00;102578.16;6514673;22;20292;-81
2022/08/07 06:27:00;;;;;;;9.57;6.38;;;;;;;16.52;100.00;102569.00;6542449;22;20308;-82
2022/08/07 06:29:46;;;;;;;8.23;5.88;;;;;;;16.97;100.00;102563.09;6513083;22;19999;-82
2022/08/07 06:32:24;;;;;;;7.82;6.28;;;;;;;17.31;100.00;102557.22;6539957;22;20008;-82
2022/08/07 06:34:59;;;;;;;8.20;6.47;;;;;;;17.55;100.00;102558.59;6514163;22;20444;-81
2022/08/07 06:37:30;;;;;;;6.70;5.95;;;;;;;17.90;100.00;102548.94;6513444;22;20082;-81
2022/08/07 06:40:02;;;;;;;7.43;6.65;;;;;;;18.02;100.00;102555.88;6540960;22;19996;-81
2022/08/07 06:42:39;;;;;;;7.07;6.10;;;;;;;18.20;100.00;102568.53;6540632;22;20361;-81
2022/08/07 06:45:17;;;;;;;9.45;6.80;;;;;;;18.66;100.00;102540.50;6481834;22;20009;-81
2022/08/07 06:47:53;;;;;;;9.82;6.88;;;;;;;19.02;100.00;102545.94;6509462;22;20319;-79
2022/08/07 06:50:32;;;;;;;10.93;6.90;;;;;;;19.06;100.00;102543.75;6482794;22;20463;-81
2022/08/07 06:53:06;;;;;;;8.82;6.82;;;;;;;19.12;100.00;102548.53;6482730;22;20339;-81
2022/08/07 06:55:50;;;;;;;8.45;6.90;;;;;;;19.93;100.00;102538.34;6483076;22;20007;-81
2022/08/07 06:58:27;;;;;;;9.38;7.15;;;;;;;20.20;100.00;102543.53;6480887;22;20005;-81
2022/08/07 07:01:01;;;;;;;9.07;6.72;;;;;;;20.26;100.00;102533.91;6481938;22;19993;-81
2022/08/07 07:03:37;;;;;;;8.90;6.50;;;;;;;20.51;100.00;102536.66;6506968;22;20387;-81
2022/08/07 07:06:18;;;;;;;10.65;6.72;;;;;;;20.57;100.00;102541.41;6480574;22;20000;-81
2022/08/07 07:08:51;;;;;;;6.97;6.38;;;;;;;21.02;100.00;102541.94;6506802;22;20075;-81
2022/08/07 07:11:27;;;;;;;9.82;7.55;;;;;;;21.13;100.00;102536.19;6481091;22;20012;-80
2022/08/07 07:14:02;;;;;;;7.53;6.38;;;;;;;21.17;100.00;102525.84;6507896;22;20001;-80
2022/08/07 07:16:36;;;;;;;;;;;;;;;22.26;100.00;102551.44;6508080;22;20020;-81
2022/08/07 07:19:13;;;;;;;9.82;6.63;;;;;;;22.17;100.00;102552.50;6509431;22;19942;-81
2022/08/07 07:21:45;;;;;;;7.60;6.80;;;;;;;22.01;100.00;102542.56;6508898;22;19993;-81
2022/08/07 07:24:17;;;;;;;6.78;6.07;;;;;;;22.57;100.00;102542.44;6508468;22;20004;-81
2022/08/07 07:26:53;;;;;;;7.85;5.95;;;;;;;23.21;100.00;102542.94;6480822;22;20051;-82
2022/08/07 07:29:42;;;;;;;11.48;6.55;;;;;;;23.24;100.00;102549.88;6481479;22;20034;-81
2022/08/07 07:32:14;;;;;;;6.45;5.65;;;;;;;23.75;100.00;102549.16;6480380;22;20077;-81
2022/08/07 07:34:54;;;;;;;6.82;5.28;;;;;;;24.25;100.00;102524.84;6479026;22;20075;-80
2022/08/07 07:37:28;;;;;;;5.22;4.72;;;;;;;24.32;100.00;102523.03;6507752;22;20021;-81
2022/08/07 07:40:04;;;;;;;6.70;5.20;;;;;;;25.03;100.00;102539.44;6480679;22;20004;-81
2022/08/07 07:42:36;;;;;;;5.93;4.65;;;;;;;24.98;100.00;102525.56;6481757;22;20000;-80
2022/08/07 07:45:11;;;;;;;6.05;4.70;;;;;;;25.15;100.00;102534.28;6509416;22;20569;-80
2022/08/07 07:47:43;;;;;;;6.93;5.05;;;;;;;24.97;100.00;102525.78;6483386;22;19992;-80
2022/08/07 07:50:21;;;;;;;5.68;5.00;;;;;;;25.71;100.00;102518.91;6510917;22;20478;-81
2022/08/07 07:52:58;;;;;;;6.03;4.90;;;;;;;25.74;100.00;102515.78;6481094;22;19992;-81
2022/08/07 07:55:33;;;;;;;6.18;5.22;;;;;;;25.77;100.00;102521.69;6482741;22;20363;-80
2022/08/07 07:58:28;;;;;;;10.75;5.15;;;;;;;26.27;100.00;102502.28;6483318;22;20307;-81
2022/08/07 08:01:08;;;;;;;8.63;4.80;;;;;;;26.21;98.37;102523.13;6492560;22;19997;-81
2022/08/07 08:03:42;;;;;;;7.88;4.32;;;;;;;27.24;100.00;102512.84;6486247;22;20007;-81
2022/08/07 08:06:17;;;;;;;6.78;4.70;;;;;;;26.98;100.00;102522.78;6489484;22;20055;-80
2022/08/07 08:08:50;;;;;;;8.15;4.57;;;;;;;26.91;100.00;102511.84;6516276;22;20028;-81
2022/08/07 08:11:24;;;;;;;6.90;4.30;;;;;;;27.40;95.82;102515.16;6487280;22;20087;-81
2022/08/07 08:13:58;;;;;;;6.90;3.65;;;;;;;28.87;79.50;102524.50;6492286;22;20001;-81
2022/08/07 08:16:41;;;;;;;4.32;3.90;;;;;;;28.29;100.00;102523.66;6497358;22;20088;-81
2022/08/07 08:19:22;;;;;;;6.53;4.32;;;;;;;27.78;92.14;102513.56;6489628;22;19997;-80
2022/08/07 08:27:42;;;;;;;6.35;3.60;;;;;;;28.58;75.62;102522.22;6511224;22;20005;-81
2022/08/07 08:30:14;;;;;;;6.85;4.35;;;;;;;29.20;67.43;102511.31;6483326;22;20824;-82
2022/08/07 08:32:50;;;;;;;4.88;4.18;;;;;;;29.82;74.63;102517.84;6509650;22;20031;-81
2022/08/07 08:35:27;;;;;;;3.88;2.90;;;;;;;30.41;58.00;102509.84;6482624;22;20008;-81
2022/08/07 08:38:01;;;;;;;4.47;3.05;;;;;;;31.11;57.32;102531.13;6482712;22;19992;-81
2022/08/07 08:40:37;;;;;;;4.68;3.25;;;;;;;30.67;67.20;102528.66;6509598;22;20415;-81
2022/08/07 08:43:32;;;;;;;4.40;3.47;;;;;;;31.63;60.29;102528.44;6483223;22;20036;-80
2022/08/07 08:46:14;;;;;;;5.68;2.90;;;;;;;31.90;43.24;102527.03;6509134;22;20419;-81
2022/08/07 08:49:12;;;;;;;3.75;2.45;;;;;;;33.10;45.65;102525.00;6507953;22;20592;-81
2022/08/07 08:52:11;;;;;;;4.53;2.60;;;;;;;33.35;43.03;102523.72;6507955;22;20005;-80
2022/08/07 08:54:51;;;;;;;3.80;2.55;;;;;;;33.59;44.06;102524.31;6509584;22;20054;-80
2022/08/07 08:58:04;;;;;;;4.30;2.53;;;;;;;33.70;37.29;102517.81;6507995;22;20001;-80
2022/08/07 09:00:43;;;;;;;3.35;2.42;;;;;;;33.47;37.25;102527.19;6473832;22;19997;-80
2022/08/07 09:03:27;;;;;;;2.70;2.50;;;;;;;33.01;42.47;102518.22;6508973;22;19997;-80
2022/08/07 09:06:25;;;;;;;4.13;2.40;;;;;;;34.34;37.81;102519.06;6507945;22;19992;-80
2022/08/07 09:09:06;;;;;;;3.78;2.38;;;;;;;34.97;38.14;102510.13;6507705;22;20007;-79
2022/08/07 09:11:52;;;;;;;3.15;2.10;;;;;;;34.82;38.44;102514.50;6509260;22;20390;-80
2022/08/07 09:14:35;;;;;;;3.28;2.63;;;;;;;34.54;37.26;102512.00;6508916;22;19993;-80
2022/08/07 09:17:24;;;;;;;2.83;2.60;;;;;;;35.53;38.88;102517.94;6508158;22;20490;-80
2022/08/07 09:20:11;;;;;;;3.42;2.80;;;;;;;34.78;32.74;102512.50;6508652;22;20501;-79
2022/08/07 09:23:08;;;;;;;3.63;2.75;;;;;;;34.79;33.50;102508.66;6509192;22;20000;-80
2022/08/07 09:25:48;;;;;;;8.20;2.63;;;;;;;34.90;40.37;102506.78;6507528;22;20001;-80
2022/08/07 09:28:39;;;;;;;5.35;2.90;;;;;;;35.64;40.12;102511.31;6508715;22;20382;-80
2022/08/07 09:31:40;;;;;;;4.55;2.80;;;;;;;36.47;31.64;102507.59;6508423;22;20403;-79
2022/08/07 09:34:20;;;;;;;4.55;3.13;;;;;;;35.65;30.18;102503.84;6509186;22;20000;-80
2022/08/07 09:37:10;;;;;;;3.33;2.60;;;;;;;36.97;34.28;102493.09;6508522;22;20032;-80
2022/08/07 09:39:51;;;;;;;2.67;2.13;;;;;;;36.86;34.07;102495.91;6508524;22;19997;-80
2022/08/07 09:42:47;;;;;;;2.55;2.10;;;;;;;37.58;37.12;102501.22;6507696;22;20079;-79
2022/08/07 09:45:43;;;;;;;4.10;2.03;;;;;;;38.50;28.08;102487.78;6540480;22;20012;-80
2022/08/07 09:48:26;;;;;;;3.28;2.10;;;;;;;38.23;28.68;102494.72;6513429;22;20003;-80
2022/08/07 09:51:19;;;;;;;3.35;2.40;;;;;;;38.90;28.43;102486.56;6540742;22;20004;-79
2022/08/07 09:53:56;;;;;;;2.95;2.60;;;;;;;38.63;28.48;102489.94;6513694;22;19996;-79
2022/08/07 09:56:46;;;;;;;3.10;2.20;;;;;;;38.89;25.66;102476.56;6540910;22;19996;-79
2022/08/07 09:59:49;;;;;;;2.60;2.40;;;;;;;40.21;27.72;102482.59;6540619;22;19996;-80
2022/08/07 10:02:39;;;;;;;4.18;2.38;;;;;;;39.81;24.26;102480.09;6497673;22;20008;-80
2022/08/07 10:05:16;;;;;;;4.13;2.00;;;;;;;38.42;24.85;102466.97;6540467;22;20022;-79
2022/08/07 10:07:59;;;;;;;2.63;1.75;;;;;;;38.86;23.91;102468.78;6541391;22;20005;-80
2022/08/07 10:10:51;;;;;;;2.63;1.80;;;;;;;39.75;27.81;102463.72;6540429;22;20008;-79
2022/08/07 10:14:11;;;;;;;2.85;1.42;;;;;;;40.85;27.05;102454.88;6540988;22;20065;-80
2022/08/07 10:17:06;;;;;;;3.50;1.63;;;;;;;39.87;25.32;102453.78;6530546;22;20011;-80
2022/08/07 10:19:56;;;;;;;;;;;;;;;42.52;20.64;102445.97;6541258;22;20369;-80
2022/08/07 10:22:44;;;;;;;2.45;1.63;;;;;;;39.06;24.96;102455.72;6514240;22;19911;-80
2022/08/07 10:26:00;;;;;;;2.30;1.60;;;;;;;41.29;21.82;102445.03;6559585;22;19996;-80
2022/08/07 10:29:01;;;;;;;3.05;2.17;;;;;;;40.86;21.60;102448.16;6523215;22;20026;-79
2022/08/07 10:31:57;;;;;;;2.97;1.70;;;;;;;41.03;21.95;102444.72;6539142;22;20005;-79
2022/08/07 10:34:48;;;;;;;2.47;1.60;;;;;;;41.13;20.66;102449.25;6567811;22;20004;-79
2022/08/07 10:37:44;;;;;;;2.20;1.65;;;;;;;42.28;21.02;102442.34;6560045;22;20064;-78
2022/08/07 10:40:24;;;;;;;;;;;;;;;45.48;21.28;102447.53;6560538;22;20004;-78
2022/08/07 10:43:17;;;;;;;2.42;1.80;;;;;;;43.05;19.02;102433.78;6535980;22;19934;-79
2022/08/07 10:45:56;;;;;;;2.30;1.60;;;;;;;43.33;20.38;102431.53;6541443;22;20056;-79
2022/08/07 10:49:13;;;;;;;2.85;1.50;;;;;;;44.23;21.71;102434.78;6513087;22;20022;-79
2022/08/07 10:52:04;;;;;;;3.65;1.67;;;;;;;42.21;18.49;102425.19;6541378;22;20000;-80
2022/08/07 10:54:43;;;;;;;2.03;1.67;;;;;;;40.97;18.75;102423.59;6541370;22;19993;-80
2022/08/07 10:57:44;;;;;;;4.07;1.63;;;;;;;42.88;18.49;102429.75;6541619;22;19996;-80
2022/08/07 11:00:17;;;;;;;2.90;1.40;;;;;;;41.24;19.81;102422.75;6514690;22;20083;-80
2022/08/07 11:03:02;;;;;;;3.65;1.70;;;;;;;43.88;16.85;102423.59;6541741;22;19996;-79
2022/08/07 11:06:04;;;;;;;2.15;1.40;;;;;;;44.71;16.01;102420.38;6541740;22;20015;-80
2022/08/07 11:08:40;;;;;;;2.22;1.50;;;;;;;43.40;16.42;102405.78;6541400;22;19999;-80
2022/08/07 11:11:29;;;;;;;1.67;1.40;;;;;;;43.60;16.42;102404.28;6541040;22;20051;-80
2022/08/07 11:14:12;;;;;;;3.80;1.10;;;;;;;44.03;16.25;102400.59;6541441;22;20090;-80
2022/08/07 11:17:09;;;;;;;2.20;1.40;;;;;;;44.32;15.35;102399.03;6514615;22;19996;-80
2022/08/07 11:20:06;;;;;;;2.20;1.23;;;;;;;45.64;16.15;102391.41;6541242;22;20023;-80
2022/08/07 11:22:46;;;;;;;2.80;1.30;;;;;;;44.74;16.39;102382.28;6541862;22;20002;-80
2022/08/07 11:25:24;;;;;;;1.70;1.50;;;;;;;43.89;15.93;102381.13;6541575;22;19999;-80
2022/08/07 11:28:09;;;;;;;2.05;1.10;;;;;;;44.61;15.37;102377.75;6541381;22;20423;-80
2022/08/07 11:30:50;;;;;;;4.07;1.60;;;;;;;44.85;16.16;102385.53;6541238;22;20035;-80
2022/08/07 11:33:24;;;;;;;3.45;1.45;;;;;;;41.57;19.16;102372.97;6540682;22;20000;-78
2022/08/07 11:36:09;;;;;;;2.45;1.33;;;;;;;42.04;17.23;102378.22;6541597;22;20477;-78
2022/08/07 11:39:12;;;;;;;3.30;1.30;;;;;;;44.10;16.25;102375.59;6541159;22;20465;-78
2022/08/07 11:42:16;;;;;;;2.05;1.42;;;;;;;44.47;16.32;102366.72;6541639;22;20027;-79
2022/08/07 11:45:05;;;;;;;3.30;1.10;;;;;;;44.93;16.52;102367.78;6537006;22;20024;-79
2022/08/07 11:48:00;;;;;;;2.25;1.50;;;;;;;44.81;15.71;102362.88;6514357;22;20047;-79
2022/08/07 11:50:42;;;;;;;2.75;1.65;;;;;;;44.52;15.29;102363.72;6540850;22;20023;-79
2022/08/07 11:53:54;;;;;;;1.60;1.48;;;;;;;46.60;14.71;102368.56;6541019;22;19992;-78
2022/08/07 11:57:00;;;;;;;1.55;1.33;;;;;;;45.85;13.85;102358.38;6473625;23;20463;-79
2022/08/07 11:59:39;;;;;;;;;;;;;;;46.74;13.80;102356.91;6541609;22;20008;-79
2022/08/07 12:02:25;;;;;;;2.25;1.40;;;;;;;41.01;16.31;102355.50;6540872;22;19910;-79
2022/08/07 12:05:09;;;;;;;2.42;1.45;;;;;;;44.33;15.29;102350.06;6514242;22;20000;-79
2022/08/07 12:07:52;;;;;;;4.40;1.80;;;;;;;44.44;15.76;102351.31;6541187;22;25383;-79
2022/08/07 12:10:29;;;;;;;1.50;1.40;;;;;;;44.60;15.37;102345.97;6541417;22;20004;-79
2022/08/07 12:13:15;;;;;;;2.78;1.50;;;;;;;44.62;15.62;102332.41;6514456;22;20411;-79
2022/08/07 12:15:53;;;;;;;2.63;1.30;;;;;;;44.25;16.26;102346.13;6514185;22;20007;-80
2022/08/07 12:18:33;;;;;;;2.08;1.65;;;;;;;43.57;15.73;102348.75;6541189;22;19996;-80